createdAt,value
2023-02-24T00:02:04.582Z,96405.02
2023-02-24T00:04:35.803Z,96404.77
2023-02-24T00:07:04.743Z,96399.34
2023-02-24T00:09:33.643Z,96396.80
2023-02-24T00:12:10.916Z,96395.42
2023-02-24T00:14:42.577Z,96395.73
2023-02-24T00:17:14.776Z,96394.60
2023-02-24T00:19:43.620Z,96393.69
2023-02-24T00:22:13.086Z,96389.77
2023-02-24T00:24:41.071Z,96391.44
2023-02-24T00:27:11.971Z,96388.06
2023-02-24T00:29:42.161Z,96378.61
2023-02-24T00:32:13.538Z,96379.45
2023-02-24T00:34:42.003Z,96375.29
2023-02-24T00:37:10.175Z,96371.76
2023-02-24T00:39:41.962Z,96367.92
2023-02-24T00:42:12.065Z,96363.23
2023-02-24T00:44:45.662Z,96364.63
2023-02-24T00:47:16.963Z,96361.13
2023-02-24T00:49:45.593Z,96353.50
2023-02-24T00:52:20.940Z,96354.45
2023-02-24T00:54:50.260Z,96353.07
2023-02-24T00:57:20.550Z,96350.88
2023-02-24T00:59:51.449Z,96354.55
2023-02-24T01:02:20.527Z,96349.66
2023-02-24T01:04:50.121Z,96349.84
2023-02-24T01:07:18.166Z,96352.45
2023-02-24T01:09:46.443Z,96349.95
2023-02-24T01:12:38.536Z,96353.50
2023-02-24T01:15:10.214Z,96350.89
2023-02-24T01:17:40.854Z,96350.75
2023-02-24T01:20:16.803Z,96337.81
2023-02-24T01:22:53.220Z,96343.61
2023-02-24T01:25:21.882Z,96339.88
2023-02-24T01:27:50.801Z,96337.31
2023-02-24T01:30:18.969Z,96333.23
2023-02-24T01:32:47.599Z,96328.41
2023-02-24T01:35:16.633Z,96323.70
2023-02-24T01:37:45.858Z,96325.77
2023-02-24T01:40:20.686Z,96327.16
2023-02-24T01:42:49.753Z,96321.23
2023-02-24T01:45:25.181Z,96315.68
2023-02-24T01:47:58.614Z,96313.07
2023-02-24T01:50:27.958Z,96310.52
2023-02-24T01:53:02.000Z,96310.77
2023-02-24T01:55:38.037Z,96309.55
2023-02-24T01:58:13.106Z,96306.61
2023-02-24T02:00:46.933Z,96304.27
2023-02-24T02:03:24.508Z,96304.15
2023-02-24T02:05:59.049Z,96305.58
2023-02-24T02:08:28.635Z,96303.92
2023-02-24T02:11:02.664Z,96300.84
2023-02-24T02:13:38.140Z,96297.70
2023-02-24T02:16:26.113Z,96297.35
2023-02-24T02:19:00.968Z,96293.23
2023-02-24T02:21:41.220Z,96294.80
2023-02-24T02:24:40.168Z,96297.97
2023-02-24T02:27:24.567Z,96291.27
2023-02-24T02:30:24.290Z,96289.99
2023-02-24T02:33:02.128Z,96290.63
2023-02-24T02:35:36.980Z,96286.77
2023-02-24T02:38:28.016Z,96286.61
2023-02-24T02:41:07.491Z,96285.28
2023-02-24T02:43:46.592Z,96285.13
2023-02-24T02:46:35.024Z,96290.12
2023-02-24T02:49:13.366Z,96281.86
2023-02-24T02:51:47.086Z,96283.98
2023-02-24T02:54:32.729Z,96289.02
2023-02-24T02:57:18.209Z,96287.84
2023-02-24T02:59:54.680Z,96286.64
2023-02-24T03:02:29.789Z,96286.12
2023-02-24T03:05:05.134Z,96280.69
2023-02-24T03:07:37.846Z,96282.60
2023-02-24T03:10:17.821Z,96279.55
2023-02-24T03:12:50.830Z,96279.00
2023-02-24T03:15:22.604Z,96282.08
2023-02-24T03:18:01.747Z,96280.64
2023-02-24T03:20:38.138Z,96281.45
2023-02-24T03:23:18.504Z,96280.13
2023-02-24T03:26:07.950Z,96281.88
2023-02-24T03:28:43.520Z,96278.67
2023-02-24T03:31:30.749Z,96277.69
2023-02-24T03:34:05.655Z,96277.01
2023-02-24T03:36:34.271Z,96278.56
2023-02-24T03:39:05.513Z,96277.98
2023-02-24T03:41:56.404Z,96273.39
2023-02-24T03:44:25.104Z,96271.59
2023-02-24T03:46:56.037Z,96269.66
2023-02-24T03:49:25.565Z,96272.30
2023-02-24T03:52:21.725Z,96270.60
2023-02-24T03:55:08.789Z,96274.77
2023-02-24T03:57:59.926Z,96267.78
2023-02-24T04:00:46.775Z,96261.50
2023-02-24T04:03:25.872Z,96252.32
2023-02-24T04:06:15.833Z,96252.53
2023-02-24T04:09:02.194Z,96250.38
2023-02-24T04:11:41.358Z,96246.48
2023-02-24T04:14:19.466Z,96250.86
2023-02-24T04:16:57.404Z,96251.31
2023-02-24T04:19:29.738Z,96253.17
2023-02-24T04:21:59.553Z,96250.89
2023-02-24T04:24:31.086Z,96250.75
2023-02-24T04:27:03.662Z,96248.44
2023-02-24T04:29:38.851Z,96241.77
2023-02-24T04:32:10.535Z,96243.88
2023-02-24T04:34:40.423Z,96243.33
2023-02-24T04:37:09.101Z,96239.39
2023-02-24T04:39:38.594Z,96240.79
2023-02-24T04:42:10.966Z,96245.81
2023-02-24T04:44:39.063Z,96247.23
2023-02-24T04:47:07.468Z,96245.81
2023-02-24T04:49:35.587Z,96250.36
2023-02-24T04:52:03.558Z,96250.86
2023-02-24T04:54:32.950Z,96247.52
2023-02-24T04:57:01.238Z,96244.99
2023-02-24T04:59:29.510Z,96252.14
2023-02-24T05:02:01.699Z,96251.45
2023-02-24T05:04:36.229Z,96249.11
2023-02-24T05:07:05.010Z,96244.64
2023-02-24T05:09:33.265Z,96245.97
2023-02-24T05:12:01.338Z,96239.23
2023-02-24T05:14:29.282Z,96239.22
2023-02-24T05:17:00.586Z,96233.39
2023-02-24T05:19:47.987Z,96234.45
2023-02-24T05:22:17.805Z,96227.50
2023-02-24T05:24:48.059Z,96230.73
2023-02-24T05:27:17.480Z,96231.91
2023-02-24T05:29:45.912Z,96233.63
2023-02-24T05:32:16.936Z,96228.25
2023-02-24T05:34:45.326Z,96229.42
2023-02-24T05:37:16.800Z,96230.16
2023-02-24T05:39:44.960Z,96226.22
2023-02-24T05:42:13.231Z,96221.19
2023-02-24T05:44:42.017Z,96225.14
2023-02-24T05:47:11.038Z,96224.11
2023-02-24T05:49:39.581Z,96228.67
2023-02-24T05:52:09.754Z,96231.75
2023-02-24T05:54:41.268Z,96231.12
2023-02-24T05:57:12.578Z,96225.70
2023-02-24T05:59:42.113Z,96229.02
2023-02-24T06:02:13.726Z,96226.17
2023-02-24T06:04:54.274Z,96226.17
2023-02-24T06:07:27.746Z,96225.58
2023-02-24T06:09:58.690Z,96221.40
2023-02-24T06:12:33.989Z,96222.98
2023-02-24T06:15:07.902Z,96219.00
2023-02-24T06:17:36.251Z,96215.85
2023-02-24T06:20:15.749Z,96218.04
2023-02-24T06:22:43.913Z,96214.02
2023-02-24T06:25:12.220Z,96215.17
2023-02-24T06:27:40.353Z,96212.32
2023-02-24T06:30:10.527Z,96210.57
2023-02-24T06:32:38.884Z,96210.86
2023-02-24T06:35:10.923Z,96208.06
2023-02-24T06:37:39.648Z,96209.18
2023-02-24T06:40:18.030Z,96204.67
2023-02-24T06:42:54.174Z,96205.04
2023-02-24T06:45:24.458Z,96198.92
2023-02-24T06:47:53.125Z,96200.23
2023-02-24T06:50:21.992Z,96197.34
2023-02-24T06:52:50.780Z,96194.49
2023-02-24T06:55:27.742Z,96197.59
2023-02-24T06:58:04.465Z,96206.27
2023-02-24T07:00:37.425Z,96209.52
2023-02-24T07:03:17.307Z,96211.29
2023-02-24T07:05:50.812Z,96208.59
2023-02-24T07:08:24.642Z,96202.20
2023-02-24T07:11:00.130Z,96195.75
2023-02-24T07:13:31.564Z,96197.86
2023-02-24T07:16:07.508Z,96194.23
2023-02-24T07:18:37.121Z,96189.84
2023-02-24T07:21:05.615Z,96185.23
2023-02-24T07:23:33.790Z,96183.39
2023-02-24T07:26:06.917Z,96180.63
2023-02-24T07:28:35.046Z,96179.21
2023-02-24T07:31:08.529Z,96176.74
2023-02-24T07:33:37.440Z,96175.99
2023-02-24T07:36:10.641Z,96175.48
2023-02-24T07:38:40.051Z,96175.98
2023-02-24T07:41:13.003Z,96170.45
2023-02-24T07:43:43.934Z,96171.95
2023-02-24T07:46:19.277Z,96171.89
2023-02-24T07:48:47.325Z,96170.34
2023-02-24T07:51:19.482Z,96168.70
2023-02-24T07:53:53.908Z,96167.33
2023-02-24T07:56:27.193Z,96168.50
2023-02-24T07:58:59.676Z,96164.63
2023-02-24T08:01:39.481Z,96162.48
2023-02-24T08:04:12.563Z,96160.90
2023-02-24T08:06:48.032Z,96163.65
2023-02-24T08:09:19.357Z,96160.02
2023-02-24T08:11:54.706Z,96157.69
2023-02-24T08:14:32.916Z,96150.23
2023-02-24T08:17:05.513Z,96148.36
2023-02-24T08:19:39.719Z,96153.60
2023-02-24T08:22:19.897Z,96149.67
2023-02-24T08:25:00.749Z,96140.15
2023-02-24T08:27:32.184Z,96140.02
2023-02-24T08:30:03.038Z,96133.79
2023-02-24T08:32:43.885Z,96134.27
2023-02-24T08:35:20.566Z,96134.40
2023-02-24T08:37:55.495Z,96126.63
2023-02-24T08:40:32.989Z,96124.41
2023-02-24T08:43:01.168Z,96125.83
2023-02-24T08:45:38.649Z,96125.21
2023-02-24T08:48:18.363Z,96124.73
2023-02-24T08:50:47.031Z,96123.62
2023-02-24T08:53:19.429Z,96118.39
2023-02-24T08:55:51.948Z,96120.13
2023-02-24T08:58:27.268Z,96120.63
2023-02-24T09:00:59.383Z,96117.84
2023-02-24T09:03:29.711Z,96115.96
2023-02-24T09:06:04.698Z,96112.11
2023-02-24T09:08:35.135Z,96109.48
2023-02-24T09:11:08.151Z,96104.51
2023-02-24T09:13:51.868Z,96105.55
2023-02-24T09:16:23.664Z,96100.59
2023-02-24T09:19:18.420Z,96100.23
2023-02-24T09:21:48.940Z,96092.64
2023-02-24T09:24:27.247Z,96093.39
2023-02-24T09:26:59.326Z,96089.90
2023-02-24T09:29:35.305Z,96086.71
2023-02-24T09:32:07.017Z,96086.49
2023-02-24T09:34:37.712Z,96084.22
2023-02-24T09:37:05.870Z,96084.75
2023-02-24T09:39:54.732Z,96083.39
2023-02-24T09:42:33.524Z,96079.77
2023-02-24T09:45:12.965Z,96081.41
2023-02-24T09:47:52.096Z,96078.47
2023-02-24T09:50:46.913Z,96075.77
2023-02-24T09:53:17.670Z,96077.10
2023-02-24T09:56:16.194Z,96072.92
2023-02-24T09:59:26.557Z,96069.42
2023-02-24T10:02:31.395Z,96070.34
2023-02-24T10:05:27.539Z,96066.92
2023-02-24T10:07:57.569Z,96071.98
2023-02-24T10:10:36.063Z,96065.15
2023-02-24T10:13:34.152Z,96063.86
2023-02-24T10:16:07.335Z,96056.85
2023-02-24T10:19:01.488Z,96047.96
2023-02-24T10:22:00.551Z,96042.85
2023-02-24T10:24:35.884Z,96036.56
2023-02-24T10:27:17.558Z,96031.85
2023-02-24T10:29:55.692Z,96022.07
2023-02-24T10:32:37.898Z,96017.65
2023-02-24T10:35:09.636Z,96007.62
2023-02-24T10:37:37.711Z,96007.38
2023-02-24T10:40:10.445Z,96002.80
2023-02-24T10:42:48.866Z,96000.40
2023-02-24T10:45:24.763Z,95996.56
2023-02-24T10:47:57.426Z,95991.98
2023-02-24T10:50:30.372Z,95986.64
2023-02-24T10:53:07.804Z,95978.11
2023-02-24T10:55:43.154Z,95973.73
2023-02-24T10:58:28.314Z,95968.54
2023-02-24T11:01:07.621Z,95965.08
2023-02-24T11:04:00.919Z,95959.16
2023-02-24T11:06:41.320Z,95954.81
2023-02-24T11:09:19.553Z,95949.41
2023-02-24T11:12:07.519Z,95945.08
2023-02-24T11:15:07.758Z,95936.87
2023-02-24T11:17:37.880Z,95923.59
2023-02-24T11:20:15.783Z,95915.10
2023-02-24T11:22:48.149Z,95909.44
2023-02-24T11:25:27.323Z,95906.06
2023-02-24T11:27:57.093Z,95904.42
2023-02-24T11:30:46.340Z,95898.29
2023-02-24T11:33:42.692Z,95896.26
2023-02-24T11:36:41.380Z,95888.20
2023-02-24T11:39:21.519Z,95873.51
2023-02-24T11:41:55.690Z,95869.16
2023-02-24T11:44:34.692Z,95866.39
2023-02-24T11:47:07.976Z,95856.67
2023-02-24T11:50:06.672Z,95851.77
2023-02-24T11:52:40.418Z,95848.55
2023-02-24T11:55:23.395Z,95843.77
2023-02-24T11:57:54.961Z,95836.52
2023-02-24T12:00:28.066Z,95831.73
2023-02-24T12:03:13.685Z,95837.33
2023-02-24T12:05:49.033Z,95826.11
2023-02-24T12:08:33.493Z,95824.11
2023-02-24T12:11:11.730Z,95826.22
2023-02-24T12:13:48.676Z,95824.10
2023-02-24T12:16:25.953Z,95818.27
2023-02-24T12:19:06.663Z,95818.55
2023-02-24T12:21:42.201Z,95813.58
2023-02-24T12:24:14.692Z,95807.25
2023-02-24T12:26:53.300Z,95805.24
2023-02-24T12:29:42.147Z,95803.90
2023-02-24T12:32:43.019Z,95799.14
2023-02-24T12:35:32.372Z,95791.40
2023-02-24T12:38:03.836Z,95794.92
2023-02-24T12:40:47.474Z,95784.11
2023-02-24T12:43:38.982Z,95785.95
2023-02-24T12:46:20.292Z,95774.89
2023-02-24T12:49:13.429Z,95771.03
2023-02-24T12:51:55.004Z,95766.73
2023-02-24T12:54:51.361Z,95768.27
2023-02-24T12:57:30.574Z,95760.87
2023-02-24T13:00:07.864Z,95757.59
2023-02-24T13:03:01.958Z,95752.75
2023-02-24T13:05:39.336Z,95748.47
2023-02-24T13:08:40.883Z,95744.49
2023-02-24T13:11:30.152Z,95732.13
2023-02-24T13:14:26.436Z,95739.77
2023-02-24T13:17:25.396Z,95737.58
2023-02-24T13:19:55.608Z,95737.23
2023-02-24T13:22:30.659Z,95724.84
2023-02-24T13:25:21.680Z,95726.49
2023-02-24T13:28:02.333Z,95731.09
2023-02-24T13:30:39.333Z,95728.67
2023-02-24T13:33:24.175Z,95724.89
2023-02-24T13:36:07.065Z,95725.25
2023-02-24T13:38:39.053Z,95727.17
2023-02-24T13:41:25.135Z,95728.89
2023-02-24T13:44:24.151Z,95723.42
2023-02-24T13:47:13.929Z,95727.40
2023-02-24T13:50:19.760Z,95731.38
2023-02-24T13:53:17.926Z,95722.90
2023-02-24T13:56:11.123Z,95726.05
2023-02-24T13:58:52.724Z,95730.05
2023-02-24T14:01:22.680Z,95727.70
2023-02-24T14:04:19.067Z,95719.20
2023-02-24T14:06:52.269Z,95718.52
2023-02-24T14:09:30.858Z,95717.66
2023-02-24T14:12:07.399Z,95724.30
2023-02-24T14:14:35.728Z,95727.52
2023-02-24T14:17:03.702Z,95726.04
2023-02-24T14:19:31.710Z,95724.81
2023-02-24T14:22:00.354Z,95722.86
2023-02-24T14:24:29.438Z,95723.48
2023-02-24T14:26:59.434Z,95723.34
2023-02-24T14:29:32.253Z,95719.70
2023-02-24T14:32:00.802Z,95720.36
2023-02-24T14:34:31.352Z,95715.80
2023-02-24T14:37:02.846Z,95708.09
2023-02-24T14:39:34.441Z,95709.55
2023-02-24T14:42:09.811Z,95710.77
2023-02-24T14:44:50.235Z,95706.71
2023-02-24T14:47:21.015Z,95705.15
2023-02-24T14:50:02.274Z,95703.63
2023-02-24T14:52:41.822Z,95702.52
2023-02-24T14:55:18.707Z,95706.66
2023-02-24T14:58:04.219Z,95706.56
2023-02-24T15:00:43.929Z,95702.65
2023-02-24T15:03:25.129Z,95706.30
2023-02-24T15:05:56.783Z,95701.77
2023-02-24T15:08:31.007Z,95706.38
2023-02-24T15:10:59.343Z,95706.80
2023-02-24T15:13:38.818Z,95705.02
2023-02-24T15:16:36.648Z,95696.36
2023-02-24T15:19:05.858Z,95681.83
2023-02-24T15:21:40.598Z,95683.20
2023-02-24T15:24:25.355Z,95677.41
2023-02-24T15:27:00.143Z,95680.14
2023-02-24T15:29:31.741Z,95678.13
2023-02-24T15:32:04.319Z,95681.45
2023-02-24T15:34:36.638Z,95684.20
2023-02-24T15:37:22.041Z,95680.61
2023-02-24T15:39:54.647Z,95679.73
2023-02-24T15:42:32.598Z,95676.90
2023-02-24T15:45:34.714Z,95670.20
2023-02-24T15:48:17.941Z,95666.95
2023-02-24T15:50:45.907Z,95664.77
2023-02-24T15:53:14.290Z,95666.35
2023-02-24T15:55:43.692Z,95669.09
2023-02-24T15:58:18.171Z,95672.14
2023-02-24T16:00:46.818Z,95667.42
2023-02-24T16:03:14.863Z,95661.63
2023-02-24T16:05:42.949Z,95660.29
2023-02-24T16:08:18.388Z,95658.08
2023-02-24T16:10:47.388Z,95655.20
2023-02-24T16:13:22.734Z,95653.73
2023-02-24T16:15:51.572Z,95651.83
2023-02-24T16:18:22.792Z,95659.18
2023-02-24T16:20:55.338Z,95658.41
2023-02-24T16:23:25.802Z,95662.92
2023-02-24T16:25:56.925Z,95658.83
2023-02-24T16:28:26.501Z,95650.42
2023-02-24T16:30:54.705Z,95651.89
2023-02-24T16:33:23.864Z,95651.59
2023-02-24T16:35:55.352Z,95653.10
2023-02-24T16:38:26.852Z,95653.00
2023-02-24T16:40:55.993Z,95654.73
2023-02-24T16:43:24.916Z,95651.35
2023-02-24T16:45:55.707Z,95654.52
2023-02-24T16:48:26.537Z,95652.93
2023-02-24T16:50:54.744Z,95651.44
2023-02-24T16:53:24.350Z,95655.48
2023-02-24T16:55:52.844Z,95653.16
2023-02-24T16:58:20.887Z,95654.31
2023-02-24T17:00:52.237Z,95657.24
2023-02-24T17:03:26.068Z,95648.91
2023-02-24T17:05:55.351Z,95654.23
2023-02-24T17:08:23.924Z,95653.11
2023-02-24T17:10:52.952Z,95646.74
2023-02-24T17:13:22.472Z,95639.21
2023-02-24T17:15:57.004Z,95640.69
2023-02-24T17:18:26.582Z,95636.05
2023-02-24T17:20:55.057Z,95638.02
2023-02-24T17:23:23.944Z,95631.95
2023-02-24T17:25:55.026Z,95626.19
2023-02-24T17:28:23.569Z,95617.71
2023-02-24T17:30:52.089Z,95617.37
2023-02-24T17:33:20.415Z,95618.04
2023-02-24T17:35:48.487Z,95618.31
2023-02-24T17:38:19.141Z,95622.66
2023-02-24T17:40:47.496Z,95621.98
2023-02-24T17:43:15.481Z,95620.92
2023-02-24T17:45:45.487Z,95620.80
2023-02-24T17:48:14.992Z,95626.92
2023-02-24T17:50:45.206Z,95625.02
2023-02-24T17:53:13.502Z,95621.24
2023-02-24T17:55:55.835Z,95615.40
2023-02-24T17:58:27.983Z,95611.26
2023-02-24T18:00:56.236Z,95609.70
2023-02-24T18:03:24.787Z,95604.16
2023-02-24T18:06:07.550Z,95606.59
2023-02-24T18:08:37.519Z,95601.98
2023-02-24T18:11:07.983Z,95600.88
2023-02-24T18:13:36.253Z,95594.70
2023-02-24T18:16:13.133Z,95588.94
2023-02-24T18:18:41.931Z,95588.81
2023-02-24T18:21:10.111Z,95585.77
2023-02-24T18:23:40.550Z,95583.58
2023-02-24T18:26:10.946Z,95580.84
2023-02-24T18:28:39.937Z,95577.21
2023-02-24T18:31:20.709Z,95578.70
2023-02-24T18:33:49.710Z,95579.44
2023-02-24T18:36:18.654Z,95576.27
2023-02-24T18:38:47.130Z,95579.95
2023-02-24T18:41:18.607Z,95571.71
2023-02-24T18:43:51.218Z,95570.48
2023-02-24T18:46:20.364Z,95575.02
2023-02-24T18:48:50.552Z,95573.81
2023-02-24T18:51:22.099Z,95574.33
2023-02-24T18:53:52.574Z,95572.20
2023-02-24T18:56:23.599Z,95565.73
2023-02-24T18:58:55.701Z,95562.69
2023-02-24T19:01:28.357Z,95560.04
2023-02-24T19:03:57.384Z,95558.94
2023-02-24T19:06:28.576Z,95558.34
2023-02-24T19:08:59.784Z,95555.71
2023-02-24T19:11:28.456Z,95552.09
2023-02-24T19:13:58.394Z,95555.33
2023-02-24T19:16:27.392Z,95554.75
2023-02-24T19:18:57.307Z,95549.71
2023-02-24T19:21:26.861Z,95541.65
2023-02-24T19:23:55.073Z,95546.25
2023-02-24T19:26:26.606Z,95547.29
2023-02-24T19:28:55.217Z,95551.67
2023-02-24T19:31:26.530Z,95552.88
2023-02-24T19:33:56.283Z,95550.60
2023-02-24T19:36:24.994Z,95545.24
2023-02-24T19:38:54.161Z,95540.34
2023-02-24T19:41:22.737Z,95539.63
2023-02-24T19:43:50.782Z,95534.41
2023-02-24T19:46:19.375Z,95538.52
2023-02-24T19:48:48.583Z,95532.98
2023-02-24T19:51:19.945Z,95528.46
2023-02-24T19:53:52.732Z,95524.58
2023-02-24T19:56:25.990Z,95523.02
2023-02-24T19:58:56.457Z,95520.76
2023-02-24T20:01:26.120Z,95520.34
2023-02-24T20:03:56.736Z,95513.74
2023-02-24T20:06:37.228Z,95509.02
2023-02-24T20:09:08.268Z,95509.75
2023-02-24T20:11:38.635Z,95506.32
2023-02-24T20:14:08.696Z,95497.31
2023-02-24T20:16:38.697Z,95492.61
2023-02-24T20:19:09.589Z,95490.43
2023-02-24T20:21:41.124Z,95491.23
2023-02-24T20:24:13.790Z,95490.41
2023-02-24T20:26:47.174Z,95488.08
2023-02-24T20:29:18.106Z,95488.50
2023-02-24T20:31:47.116Z,95468.89
2023-02-24T20:34:16.962Z,95463.69
2023-02-24T20:36:45.674Z,95470.44
2023-02-24T20:39:14.512Z,95467.79
2023-02-24T20:41:43.118Z,95460.36
2023-02-24T20:44:11.812Z,95455.58
2023-02-24T20:46:39.994Z,95451.64
2023-02-24T20:49:11.064Z,95451.91
2023-02-24T20:51:39.101Z,95457.63
2023-02-24T20:54:09.622Z,95457.77
2023-02-24T20:56:39.861Z,95451.73
2023-02-24T20:59:20.000Z,95455.09
2023-02-24T21:01:49.082Z,95450.15
2023-02-24T21:04:20.277Z,95438.59
2023-02-24T21:06:49.008Z,95433.84
2023-02-24T21:09:17.068Z,95431.40
2023-02-24T21:11:45.107Z,95430.80
2023-02-24T21:14:17.667Z,95426.45
2023-02-24T21:16:49.822Z,95420.44
2023-02-24T21:19:20.466Z,95417.33
2023-02-24T21:21:48.521Z,95417.95
2023-02-24T21:24:16.766Z,95417.80
2023-02-24T21:26:44.880Z,95414.11
2023-02-24T21:29:12.951Z,95416.38
2023-02-24T21:31:41.553Z,95414.52
2023-02-24T21:34:12.372Z,95418.26
2023-02-24T21:36:40.312Z,95411.09
2023-02-24T21:39:08.781Z,95403.89
2023-02-24T21:41:37.001Z,95403.29
2023-02-24T21:44:05.356Z,95404.78
2023-02-24T21:46:33.611Z,95401.55
2023-02-24T21:49:02.022Z,95401.70
2023-02-24T21:51:30.203Z,95395.10
2023-02-24T21:53:58.575Z,95397.66
2023-02-24T21:56:29.480Z,95398.13
2023-02-24T21:59:00.642Z,95398.00
2023-02-24T22:01:38.337Z,95393.39
2023-02-24T22:04:09.675Z,95393.40
2023-02-24T22:06:39.108Z,95388.35
2023-02-24T22:09:08.713Z,95389.70
2023-02-24T22:11:39.440Z,95390.65
2023-02-24T22:14:09.608Z,95385.60
2023-02-24T22:16:37.727Z,95386.41
2023-02-24T22:19:06.446Z,95387.39
2023-02-24T22:21:34.708Z,95381.36
2023-02-24T22:24:03.919Z,95380.21
2023-02-24T22:26:32.257Z,95379.85
2023-02-24T22:29:01.628Z,95380.36
2023-02-24T22:31:32.227Z,95377.17
2023-02-24T22:34:01.018Z,95379.98
2023-02-24T22:36:34.527Z,95378.86
2023-02-24T22:39:03.086Z,95383.42
2023-02-24T22:41:34.224Z,95387.55
2023-02-24T22:44:04.833Z,95388.83
2023-02-24T22:46:35.839Z,95401.20
2023-02-24T22:49:05.154Z,95402.23
2023-02-24T22:51:33.273Z,95405.86
2023-02-24T22:54:01.671Z,95405.16
2023-02-24T22:56:30.438Z,95405.12
2023-02-24T22:58:59.329Z,95399.45
2023-02-24T23:01:31.207Z,95400.72
2023-02-24T23:04:01.370Z,95396.97
2023-02-24T23:06:30.863Z,95384.95
2023-02-24T23:09:00.292Z,95379.17
2023-02-24T23:11:34.274Z,95364.02
2023-02-24T23:14:06.195Z,95346.64
2023-02-24T23:16:35.362Z,95334.80
2023-02-24T23:19:19.644Z,95328.86
2023-02-24T23:21:50.212Z,95322.59
2023-02-24T23:24:20.479Z,95311.11
2023-02-24T23:26:54.231Z,95305.14
2023-02-24T23:29:24.116Z,95299.34
2023-02-24T23:31:53.014Z,95296.89
2023-02-24T23:34:21.284Z,95306.42
2023-02-24T23:36:49.662Z,95314.35
2023-02-24T23:39:23.219Z,95308.45
2023-02-24T23:41:56.886Z,95301.12
2023-02-24T23:44:25.885Z,95307.12
2023-02-24T23:46:55.080Z,95304.73
2023-02-24T23:49:23.425Z,95305.58
2023-02-24T23:51:52.542Z,95302.64
2023-02-24T23:54:20.608Z,95299.64
2023-02-24T23:56:49.094Z,95293.25
2023-02-24T23:59:17.376Z,95297.67
